createdAt,value
2022-12-04T00:02:44.339Z,44.05
2022-12-04T00:05:46.860Z,40.30
2022-12-04T00:08:50.194Z,41.58
2022-12-04T00:11:52.611Z,38.88
2022-12-04T00:18:17.429Z,37.58
2022-12-04T00:21:19.987Z,38.85
2022-12-04T00:24:23.747Z,35.78
2022-12-04T00:27:28.806Z,41.90
2022-12-04T00:30:31.436Z,38.65
2022-12-04T00:33:34.034Z,39.67
2022-12-04T00:36:36.422Z,38.17
2022-12-04T00:39:38.538Z,38.58
2022-12-04T00:42:41.241Z,38.35
2022-12-04T00:45:43.490Z,38.53
2022-12-04T00:48:46.223Z,38.60
2022-12-04T00:51:48.312Z,38.10
2022-12-04T00:54:50.869Z,38.08
2022-12-04T00:57:58.411Z,40.67
2022-12-04T01:01:11.133Z,38.17
2022-12-04T01:07:15.546Z,36.83
2022-12-04T01:10:17.652Z,38.22
2022-12-04T01:13:20.534Z,39.35
2022-12-04T01:16:26.217Z,38.00
2022-12-04T01:19:28.601Z,40.70
2022-12-04T01:22:31.138Z,39.15
2022-12-04T01:25:33.924Z,37.28
2022-12-04T01:28:36.655Z,39.42
2022-12-04T01:31:39.153Z,39.63
2022-12-04T01:34:41.305Z,39.25
2022-12-04T01:37:43.663Z,39.53
2022-12-04T01:40:45.825Z,43.17
2022-12-04T01:44:26.545Z,38.95
2022-12-04T01:47:28.691Z,39.47
2022-12-04T01:50:31.155Z,42.40
2022-12-04T01:53:37.828Z,42.80
2022-12-04T01:56:46.672Z,38.03
2022-12-04T02:00:01.807Z,43.22
2022-12-04T02:03:06.478Z,49.97
2022-12-04T02:06:08.874Z,43.30
2022-12-04T02:09:11.049Z,41.88
2022-12-04T02:12:13.362Z,40.08
2022-12-04T02:15:18.038Z,41.22
2022-12-04T02:18:23.095Z,41.40
2022-12-04T02:21:38.777Z,44.42
2022-12-04T02:24:51.917Z,44.35
2022-12-04T02:28:02.330Z,44.92
2022-12-04T02:31:08.809Z,40.00
2022-12-04T02:34:16.654Z,40.05
2022-12-04T02:37:29.881Z,41.10
2022-12-04T02:40:43.003Z,40.88
2022-12-04T02:44:16.201Z,44.70
2022-12-04T02:47:23.990Z,48.45
2022-12-04T02:50:28.945Z,47.13
2022-12-04T02:53:35.576Z,45.70
2022-12-04T02:56:42.704Z,48.38
2022-12-04T02:59:48.828Z,49.33
2022-12-04T03:03:07.595Z,51.33
2022-12-04T03:06:11.886Z,51.70
2022-12-04T03:09:29.918Z,48.25
2022-12-04T03:12:58.044Z,49.95
2022-12-04T03:16:19.575Z,47.20
2022-12-04T03:19:26.733Z,47.70
2022-12-04T03:22:31.537Z,46.47
2022-12-04T03:25:40.907Z,43.55
2022-12-04T03:29:05.013Z,42.10
2022-12-04T03:32:23.850Z,44.83
2022-12-04T03:35:48.717Z,45.00
2022-12-04T03:39:17.340Z,41.53
2022-12-04T03:42:27.924Z,41.13
2022-12-04T03:45:54.260Z,45.58
2022-12-04T03:49:08.634Z,43.08
2022-12-04T03:52:18.449Z,43.03
2022-12-04T03:55:29.544Z,36.83
2022-12-04T03:58:35.668Z,39.65
2022-12-04T04:01:42.939Z,42.35
2022-12-04T04:04:49.563Z,38.65
2022-12-04T04:07:56.084Z,40.00
2022-12-04T04:11:11.841Z,41.70
2022-12-04T04:14:58.119Z,40.00
2022-12-04T04:18:20.682Z,38.72
2022-12-04T04:21:48.275Z,39.30
2022-12-04T04:24:58.518Z,36.97
2022-12-04T04:28:00.630Z,37.10
2022-12-04T04:31:29.624Z,39.95
2022-12-04T04:35:10.512Z,35.97
2022-12-04T04:38:25.513Z,35.97
2022-12-04T04:41:38.553Z,38.45
2022-12-04T04:44:50.181Z,37.10
2022-12-04T04:47:58.486Z,37.90
2022-12-04T04:51:03.299Z,37.10
2022-12-04T04:54:10.281Z,36.72
2022-12-04T04:57:12.793Z,35.70
2022-12-04T05:00:18.433Z,34.45
2022-12-04T05:03:20.916Z,35.60
2022-12-04T05:06:23.042Z,33.60
2022-12-04T05:09:26.370Z,36.17
2022-12-04T05:12:28.454Z,37.15
2022-12-04T05:15:30.860Z,34.15
2022-12-04T05:18:34.609Z,33.38
2022-12-04T05:21:37.103Z,36.58
2022-12-04T05:24:39.330Z,32.28
2022-12-04T05:27:41.782Z,31.15
2022-12-04T05:30:43.952Z,32.08
2022-12-04T05:33:46.387Z,34.00
2022-12-04T05:36:48.506Z,31.20
2022-12-04T05:39:51.021Z,29.90
2022-12-04T05:42:53.139Z,28.50
2022-12-04T05:45:55.557Z,31.33
2022-12-04T05:48:57.649Z,31.27
2022-12-04T05:52:00.825Z,29.05
2022-12-04T05:55:03.405Z,31.17
2022-12-04T05:58:05.786Z,29.12
2022-12-04T06:01:13.376Z,29.25
2022-12-04T06:04:15.778Z,30.33
2022-12-04T06:07:17.947Z,27.25
2022-12-04T06:10:20.310Z,30.30
2022-12-04T06:13:22.476Z,29.48
2022-12-04T06:16:39.569Z,29.85
2022-12-04T06:19:41.781Z,30.23
2022-12-04T06:22:44.377Z,31.23
2022-12-04T06:25:46.507Z,36.15
2022-12-04T06:28:49.266Z,38.00
2022-12-04T06:31:51.919Z,35.35
2022-12-04T06:34:55.021Z,36.50
2022-12-04T06:37:57.195Z,33.83
2022-12-04T06:40:59.785Z,38.25
2022-12-04T06:44:01.982Z,32.72
2022-12-04T06:47:05.216Z,35.22
2022-12-04T06:50:07.999Z,37.15
2022-12-04T06:53:10.361Z,38.33
2022-12-04T06:56:18.171Z,35.25
2022-12-04T06:59:20.632Z,37.10
2022-12-04T07:02:22.953Z,37.00
2022-12-04T07:05:27.304Z,35.38
2022-12-04T07:08:29.555Z,35.00
2022-12-04T07:11:32.869Z,34.80
2022-12-04T07:14:35.045Z,40.90
2022-12-04T07:17:37.384Z,37.65
2022-12-04T07:20:39.673Z,40.25
2022-12-04T07:23:42.082Z,41.90
2022-12-04T07:26:44.517Z,39.97
2022-12-04T07:29:46.861Z,40.35
2022-12-04T07:32:49.047Z,41.65
2022-12-04T07:36:02.178Z,40.90
2022-12-04T07:39:04.479Z,39.45
2022-12-04T07:42:06.870Z,38.35
2022-12-04T07:45:09.555Z,43.42
2022-12-04T07:48:12.058Z,38.00
2022-12-04T07:51:26.376Z,42.92
2022-12-04T07:54:28.827Z,43.60
2022-12-04T07:57:30.940Z,44.03
2022-12-04T08:00:33.405Z,41.78
2022-12-04T08:03:35.845Z,42.97
2022-12-04T08:06:38.793Z,44.15
2022-12-04T08:09:41.291Z,43.53
2022-12-04T08:12:43.398Z,43.28
2022-12-04T08:15:45.778Z,41.80
2022-12-04T08:18:48.672Z,41.63
2022-12-04T08:21:51.370Z,40.28
2022-12-04T08:24:53.472Z,40.35
2022-12-04T08:27:56.016Z,42.42
2022-12-04T08:31:11.418Z,40.30
2022-12-04T08:34:13.800Z,39.92
2022-12-04T08:37:15.951Z,37.70
2022-12-04T08:40:18.317Z,40.38
2022-12-04T08:43:20.485Z,38.08
2022-12-04T08:46:24.251Z,41.25
2022-12-04T08:49:26.406Z,38.42
2022-12-04T08:52:28.962Z,39.03
2022-12-04T08:55:31.094Z,41.88
2022-12-04T08:58:33.873Z,39.30
2022-12-04T09:01:36.036Z,43.50
2022-12-04T09:04:38.822Z,39.53
2022-12-04T09:07:40.988Z,43.50
2022-12-04T09:10:44.366Z,40.08
2022-12-04T09:13:46.969Z,41.80
2022-12-04T09:16:49.590Z,39.33
2022-12-04T09:19:53.009Z,42.03
2022-12-04T09:23:05.548Z,46.28
2022-12-04T09:26:26.451Z,40.47
2022-12-04T09:29:28.820Z,45.92
2022-12-04T09:32:30.978Z,39.00
2022-12-04T09:35:34.260Z,39.22
2022-12-04T09:38:36.410Z,42.55
2022-12-04T09:42:10.391Z,41.72
2022-12-04T09:45:20.722Z,37.00
2022-12-04T09:48:35.957Z,36.28
2022-12-04T09:51:40.402Z,39.90
2022-12-04T09:54:43.867Z,37.67
2022-12-04T09:57:49.207Z,35.13
2022-12-04T10:00:54.368Z,36.17
2022-12-04T10:04:04.135Z,37.47
2022-12-04T10:07:17.282Z,39.85
2022-12-04T10:10:38.175Z,36.92
2022-12-04T10:14:08.626Z,34.17
2022-12-04T10:17:32.274Z,35.22
2022-12-04T10:20:47.030Z,34.47
2022-12-04T10:23:55.537Z,33.05
2022-12-04T10:27:02.229Z,38.08
2022-12-04T10:30:16.464Z,35.20
2022-12-04T10:33:35.344Z,35.70
2022-12-04T10:36:39.755Z,36.88
2022-12-04T10:39:51.065Z,30.20
2022-12-04T10:43:00.762Z,31.05
2022-12-04T10:46:02.912Z,31.60
2022-12-04T10:49:23.972Z,24.40
2022-12-04T10:52:26.567Z,31.27
2022-12-04T10:55:34.424Z,32.85
2022-12-04T10:58:36.719Z,33.00
2022-12-04T11:01:39.159Z,32.50
2022-12-04T11:04:42.044Z,27.45
2022-12-04T11:07:49.002Z,30.08
2022-12-04T11:11:01.465Z,30.17
2022-12-04T11:14:22.997Z,24.00
2022-12-04T11:17:25.112Z,27.13
2022-12-04T11:20:27.933Z,23.15
2022-12-04T11:23:35.235Z,22.83
2022-12-04T11:26:41.866Z,22.10
2022-12-04T11:29:45.736Z,22.48
2022-12-04T11:32:48.287Z,23.45
2022-12-04T11:36:02.218Z,23.48
2022-12-04T11:39:19.034Z,23.08
2022-12-04T11:42:29.489Z,22.60
2022-12-04T11:45:32.927Z,25.05
2022-12-04T11:48:46.064Z,24.23
2022-12-04T11:52:26.183Z,23.27
2022-12-04T11:55:52.744Z,24.12
2022-12-04T11:59:38.125Z,23.23
2022-12-04T12:03:19.483Z,22.35
2022-12-04T12:06:46.703Z,23.95
2022-12-04T12:10:10.443Z,23.98
2022-12-04T12:13:33.022Z,21.27
2022-12-04T12:23:39.886Z,23.70
2022-12-04T12:26:46.625Z,25.17
2022-12-04T12:30:04.664Z,24.05
2022-12-04T12:33:16.227Z,23.40
2022-12-04T12:36:21.813Z,23.27
2022-12-04T12:39:30.825Z,25.23
2022-12-04T12:42:58.654Z,21.80
2022-12-04T12:46:18.065Z,26.58
2022-12-04T12:49:29.805Z,22.13
2022-12-04T12:52:43.492Z,23.23
2022-12-04T12:55:54.052Z,23.87
2022-12-04T12:58:58.716Z,21.77
2022-12-04T13:02:27.422Z,21.60
2022-12-04T13:05:35.907Z,24.00
2022-12-04T13:08:47.938Z,21.05
2022-12-04T13:11:57.276Z,20.73
2022-12-04T13:14:59.475Z,24.30
2022-12-04T13:18:03.382Z,21.58
2022-12-04T13:21:07.932Z,24.25
2022-12-04T13:24:37.317Z,22.92
2022-12-04T13:27:59.133Z,23.87
2022-12-04T13:31:09.129Z,23.45
2022-12-04T13:34:36.580Z,21.60
2022-12-04T13:37:54.045Z,26.92
2022-12-04T13:41:00.395Z,26.12
2022-12-04T13:44:12.207Z,23.73
2022-12-04T13:47:28.148Z,27.98
2022-12-04T13:50:33.565Z,25.27
2022-12-04T13:53:38.065Z,26.02
2022-12-04T13:56:46.305Z,24.92
2022-12-04T13:59:49.280Z,24.60
2022-12-04T14:02:56.942Z,23.70
2022-12-04T14:06:05.278Z,24.80
2022-12-04T14:09:19.909Z,22.83
2022-12-04T14:12:31.100Z,26.08
2022-12-04T14:15:36.834Z,23.70
2022-12-04T14:18:41.578Z,24.58
2022-12-04T14:21:45.993Z,23.17
2022-12-04T14:24:50.023Z,23.95
2022-12-04T14:27:53.685Z,24.45
2022-12-04T14:31:05.341Z,24.02
2022-12-04T14:34:29.606Z,21.70
2022-12-04T14:37:36.702Z,24.27
2022-12-04T14:40:49.487Z,20.73
2022-12-04T14:43:52.241Z,22.40
2022-12-04T14:46:59.321Z,21.25
2022-12-04T14:50:23.161Z,22.40
2022-12-04T14:53:28.886Z,22.70
2022-12-04T14:56:47.810Z,21.50
2022-12-04T14:59:52.363Z,22.92
2022-12-04T15:03:00.552Z,23.30
2022-12-04T15:06:08.587Z,25.42
2022-12-04T15:09:36.830Z,26.23
2022-12-04T15:12:46.653Z,25.08
2022-12-04T15:15:49.186Z,27.60
2022-12-04T15:18:59.563Z,28.00
2022-12-04T15:22:08.758Z,27.48
2022-12-04T15:25:20.482Z,29.02
2022-12-04T15:28:34.122Z,30.00
2022-12-04T15:31:43.336Z,29.00
2022-12-04T15:34:53.209Z,28.25
2022-12-04T15:37:55.928Z,28.75
2022-12-04T15:41:00.612Z,31.73
2022-12-04T15:44:21.128Z,29.02
2022-12-04T15:47:25.483Z,28.12
2022-12-04T15:50:29.432Z,30.52
2022-12-04T15:53:37.148Z,30.52
2022-12-04T15:56:39.445Z,35.22
2022-12-04T15:59:49.637Z,31.52
2022-12-04T16:02:52.088Z,32.13
2022-12-04T16:06:23.618Z,37.15
2022-12-04T16:12:30.744Z,33.67
2022-12-04T16:15:43.847Z,39.03
2022-12-04T16:18:47.701Z,33.08
2022-12-04T16:21:50.092Z,34.85
2022-12-04T16:24:54.019Z,33.25
2022-12-04T16:27:56.373Z,39.35
2022-12-04T16:30:58.744Z,37.42
2022-12-04T16:34:00.918Z,35.45
2022-12-04T16:37:19.786Z,33.45
2022-12-04T16:40:21.922Z,36.97
2022-12-04T16:43:24.296Z,40.15
2022-12-04T16:46:29.489Z,34.53
2022-12-04T16:49:31.884Z,35.95
2022-12-04T16:52:34.059Z,34.65
2022-12-04T16:55:39.473Z,35.10
2022-12-04T16:58:41.625Z,37.03
2022-12-04T17:01:46.774Z,34.88
2022-12-04T17:04:54.107Z,35.80
2022-12-04T17:08:00.708Z,33.45
2022-12-04T17:11:03.000Z,38.95
2022-12-04T17:14:07.377Z,35.83
2022-12-04T17:17:09.505Z,37.00
2022-12-04T17:20:14.297Z,37.55
2022-12-04T17:23:16.789Z,36.67
2022-12-04T17:26:19.653Z,38.40
2022-12-04T17:29:21.746Z,37.50
2022-12-04T17:32:24.295Z,38.63
2022-12-04T17:35:26.808Z,34.58
2022-12-04T17:38:29.223Z,37.38
2022-12-04T17:41:31.458Z,36.17
2022-12-04T17:44:33.864Z,34.80
2022-12-04T17:47:36.720Z,36.45
2022-12-04T17:50:39.176Z,35.45
2022-12-04T17:53:43.075Z,35.95
2022-12-04T17:56:49.556Z,35.25
2022-12-04T17:59:54.764Z,34.70
2022-12-04T18:02:57.194Z,37.38
2022-12-04T18:06:00.752Z,35.03
2022-12-04T18:09:04.713Z,37.67
2022-12-04T18:12:07.137Z,43.17
2022-12-04T18:15:09.540Z,39.17
2022-12-04T18:18:12.036Z,41.03
2022-12-04T18:21:14.713Z,35.25
2022-12-04T18:24:18.230Z,41.60
2022-12-04T18:27:20.378Z,36.20
2022-12-04T18:30:22.790Z,37.42
2022-12-04T18:33:24.890Z,40.38
2022-12-04T18:36:29.803Z,37.95
2022-12-04T18:39:31.881Z,39.75
2022-12-04T18:42:35.614Z,38.97
2022-12-04T18:45:37.755Z,42.03
2022-12-04T18:48:41.516Z,40.88
2022-12-04T18:51:49.253Z,39.15
2022-12-04T18:54:52.143Z,35.83
2022-12-04T18:57:55.645Z,38.47
2022-12-04T19:01:05.736Z,36.70
2022-12-04T19:04:10.373Z,38.38
2022-12-04T19:07:12.791Z,37.20
2022-12-04T19:10:15.364Z,37.22
2022-12-04T19:13:17.809Z,39.72
2022-12-04T19:16:19.959Z,35.80
2022-12-04T19:19:23.744Z,35.45
2022-12-04T19:22:29.702Z,35.22
2022-12-04T19:25:32.065Z,36.25
2022-12-04T19:28:35.046Z,35.80
2022-12-04T19:31:37.951Z,38.05
2022-12-04T19:34:40.524Z,34.95
2022-12-04T19:37:48.169Z,35.75
2022-12-04T19:41:13.644Z,34.22
2022-12-04T19:44:47.484Z,34.33
2022-12-04T19:47:38.162Z,32.17
2022-12-04T19:50:40.502Z,29.75
2022-12-04T19:53:43.703Z,32.55
2022-12-04T19:56:49.043Z,32.53
2022-12-04T19:59:51.250Z,33.25
2022-12-04T20:02:53.737Z,31.25
2022-12-04T20:05:56.335Z,33.35
2022-12-04T20:09:01.428Z,31.95
2022-12-04T20:12:04.250Z,31.42
2022-12-04T20:15:06.667Z,32.60
2022-12-04T20:18:09.193Z,29.55
2022-12-04T20:21:12.405Z,30.52
2022-12-04T20:24:17.302Z,28.98
2022-12-04T20:27:19.413Z,29.77
2022-12-04T20:30:22.351Z,32.10
2022-12-04T20:33:24.598Z,29.05
2022-12-04T20:36:29.269Z,29.10
2022-12-04T20:39:31.559Z,28.77
2022-12-04T20:42:34.824Z,27.65
2022-12-04T20:45:36.888Z,30.98
2022-12-04T20:48:39.254Z,30.40
2022-12-04T20:51:42.981Z,28.35
2022-12-04T20:54:45.341Z,30.77
2022-12-04T20:57:47.513Z,32.10
2022-12-04T21:00:49.905Z,31.17
2022-12-04T21:03:52.825Z,29.55
2022-12-04T21:06:55.224Z,31.70
2022-12-04T21:09:58.548Z,30.02
2022-12-04T21:13:19.678Z,32.05
2022-12-04T21:16:22.905Z,28.17
2022-12-04T21:19:26.047Z,27.17
2022-12-04T21:22:28.150Z,28.58
2022-12-04T21:25:30.561Z,27.17
2022-12-04T21:28:32.798Z,27.65
2022-12-04T21:31:36.801Z,27.42
2022-12-04T21:34:38.943Z,23.83
2022-12-04T21:37:41.424Z,21.48
2022-12-04T21:40:43.552Z,26.00
2022-12-04T21:43:45.932Z,22.83
2022-12-04T21:46:48.958Z,23.80
2022-12-04T21:49:51.580Z,23.92
2022-12-04T21:52:54.663Z,22.42
2022-12-04T21:55:57.450Z,21.27
2022-12-04T21:59:00.067Z,18.77
2022-12-04T22:02:02.804Z,17.27
2022-12-04T22:05:05.903Z,15.93
2022-12-04T22:08:09.236Z,13.52
2022-12-04T22:11:14.214Z,9.57
2022-12-04T22:14:16.281Z,12.32
2022-12-04T22:17:18.692Z,12.30
2022-12-04T22:20:20.759Z,8.75
2022-12-04T22:23:23.168Z,8.50
2022-12-04T22:26:26.568Z,8.30
2022-12-04T22:32:51.344Z,8.88
2022-12-04T22:35:53.695Z,8.70
2022-12-04T22:39:11.433Z,8.38
2022-12-04T22:42:13.899Z,8.00
2022-12-04T22:45:16.083Z,8.55
2022-12-04T22:48:18.525Z,7.65
2022-12-04T22:51:22.003Z,7.12
2022-12-04T22:54:24.434Z,7.87
2022-12-04T22:57:26.635Z,7.28
2022-12-04T23:00:29.069Z,7.68
2022-12-04T23:03:31.226Z,6.75
2022-12-04T23:06:34.145Z,6.55
2022-12-04T23:09:36.295Z,6.20
2022-12-04T23:12:38.760Z,7.82
2022-12-04T23:15:40.907Z,6.97
2022-12-04T23:18:43.466Z,6.22
2022-12-04T23:21:46.234Z,6.55
2022-12-04T23:24:48.579Z,6.45
2022-12-04T23:27:50.982Z,6.32
2022-12-04T23:30:53.393Z,7.55
2022-12-04T23:33:55.626Z,7.65
2022-12-04T23:36:58.139Z,9.90
2022-12-04T23:40:00.566Z,8.05
2022-12-04T23:43:03.160Z,8.15
2022-12-04T23:46:10.999Z,8.40
2022-12-04T23:49:14.069Z,8.98
2022-12-04T23:52:16.194Z,8.40
2022-12-04T23:55:18.518Z,8.88
2022-12-04T23:58:20.625Z,8.38
